map of F45 home
F45 - Airport
Location
City:  West Palm Beach, Florida, United States
Name:North Palm Beach County General Aviation Airport
FAA LID:F45

Details
Type:Airport (Airfield)
Use:Public/Civil
Latitude:2650'45"N (26.845917)
Longitude:8013'20"W (-80.222332)
Datum:WGS 1984
Elevation:22 ft (7 m)
Variation:6.89W (WMM2015v2 magnetic declination)
-0.07 annual change
Runways:3
Longest:4300 × 100 ft (1311 × 30.5 m), paved

Time
Time Zone:UTC-5 (DST-4)
Local Time:

Weather
METAR:KF45 041415Z AUTO 01004KT 10SM BKN005 17/17 A3007 RMK AO2

Related Locations
Nearby:
Farthest:USL: 11602 mi / 18672 km
Useless Loop, WA, AU

Find:

   beyond  
but within

Other Information
Maps:
NOTAMs:
Links:
Sources:

  
  • flag of United States
  • flag of Florida
  

Sectional Chart

Flight Planning
at skyvector.com

Satellite Image

Google Maps Satellite view

 

Copyright © 2004-2019 Karl L. Swartz. All rights reserved.
The Great Circle Mapper name and logo are trademarks of the Great Circle Mapper.
All other trademarks mentioned herein belong to their respective owners.
Please see credits for attibutions and further copyright information.

  Follow gcmap on Facebook Follow gcmap on Twitter GCmap on LinkedIn

hCard Microformat

Geo Microformat